createdAt,value
2022-08-04T10:32:00.678Z,27.34
2022-08-04T10:37:06.388Z,27.98
2022-08-04T10:42:08.537Z,28.68
2022-08-04T10:47:20.181Z,28.61
2022-08-04T10:52:22.666Z,29.03
2022-08-04T10:57:40.898Z,29.62
2022-08-04T11:02:46.302Z,29.94
2022-08-04T11:07:51.592Z,29.74
2022-08-04T11:12:57.314Z,29.46
2022-08-04T11:18:02.404Z,29.87
2022-08-04T11:23:13.084Z,30.61
2022-08-04T11:28:32.439Z,30.72
2022-08-04T11:33:37.324Z,30.36
2022-08-04T11:38:58.424Z,30.51
2022-08-04T11:44:04.239Z,31.41
2022-08-04T11:49:16.308Z,30.23
2022-08-04T11:54:19.144Z,30.81
2022-08-04T11:59:22.982Z,30.21
2022-08-04T12:04:37.510Z,29.43
2022-08-04T12:09:56.766Z,28.46
2022-08-04T12:15:20.606Z,28.40
2022-08-04T12:20:38.207Z,27.76
2022-08-04T12:25:46.812Z,27.74
2022-08-04T12:30:58.300Z,27.38
2022-08-04T12:36:11.777Z,28.21
2022-08-04T12:41:16.425Z,28.50
2022-08-04T12:46:26.965Z,28.91
2022-08-04T12:52:06.199Z,30.18
2022-08-04T12:56:53.149Z,30.90
2022-08-04T13:02:07.938Z,31.09
2022-08-04T13:07:20.898Z,31.58
2022-08-04T13:12:32.283Z,31.42
2022-08-04T13:17:47.531Z,31.30
2022-08-04T13:22:51.481Z,31.33
2022-08-04T13:27:57.847Z,31.78
2022-08-04T13:33:04.688Z,31.37
2022-08-04T13:38:08.822Z,30.73
2022-08-04T13:44:15.860Z,31.24
2022-08-04T13:49:03.390Z,31.68
2022-08-04T13:54:09.167Z,31.45
2022-08-04T13:59:14.395Z,31.30
2022-08-04T14:04:19.270Z,32.55
2022-08-04T14:09:22.818Z,32.31
2022-08-04T14:14:48.427Z,32.09
2022-08-04T14:19:58.794Z,37.34
2022-08-04T14:25:04.565Z,40.68
2022-08-04T14:30:07.201Z,42.27
2022-08-04T14:35:12.925Z,43.95
2022-08-04T14:40:30.930Z,44.18
2022-08-04T14:45:38.293Z,44.84
2022-08-04T14:50:41.804Z,46.20
2022-08-04T14:55:48.680Z,45.86
2022-08-04T15:00:52.085Z,46.62
2022-08-04T15:06:05.171Z,47.25
2022-08-04T15:11:09.234Z,47.52
2022-08-04T15:16:11.625Z,48.08
2022-08-04T15:21:14.536Z,47.70
